Time;durP1;ratioP1;P1;durP2;ratioP2;P2;SDS_P1;SDS_P2;PMS_P1;PMS_P2;Temp;Humidity;BMP_temperature;BMP_pressure;BME280_temperature;BME280_humidity;BME280_pressure;Samples;Min_cycle;Max_cycle;Signal;HPM_P1;HPM_P2
2023/04/16 00:01:11;;;;;;;50.38;31.63;;;8.90;99.90;;;;;;5090257;28;20507;-80
2023/04/16 00:03:36;;;;;;;52.25;31.33;;;9.00;99.90;;;;;;5075277;28;20044;-81
2023/04/16 00:06:02;;;;;;;52.55;31.67;;;8.90;99.90;;;;;;5090642;28;20491;-81
2023/04/16 00:08:28;;;;;;;50.20;30.08;;;9.00;99.90;;;;;;5074156;28;20041;-80
2023/04/16 00:10:53;;;;;;;56.78;31.92;;;8.90;99.90;;;;;;5074771;28;20048;-80
2023/04/16 00:13:20;;;;;;;51.42;29.65;;;8.90;99.90;;;;;;5074367;28;20044;-80
2023/04/16 00:15:45;;;;;;;57.35;33.10;;;8.90;99.90;;;;;;5074246;28;20103;-80
2023/04/16 00:18:11;;;;;;;54.63;32.65;;;8.90;99.90;;;;;;5074716;28;20189;-80
2023/04/16 00:20:37;;;;;;;54.95;32.90;;;8.90;99.90;;;;;;5074609;28;20048;-80
2023/04/16 00:23:02;;;;;;;61.63;33.40;;;8.90;99.90;;;;;;5090433;28;20052;-81
2023/04/16 00:25:28;;;;;;;52.63;33.67;;;8.80;99.90;;;;;;5074899;28;20062;-80
2023/04/16 00:27:53;;;;;;;57.53;34.58;;;8.80;99.90;;;;;;5074522;28;20095;-80
2023/04/16 00:30:19;;;;;;;61.65;34.88;;;8.80;99.90;;;;;;5075384;28;20123;-79
2023/04/16 00:32:45;;;;;;;54.28;34.47;;;8.80;99.90;;;;;;5089399;28;20424;-79
2023/04/16 00:35:10;;;;;;;55.08;34.83;;;8.70;99.90;;;;;;5074309;28;20454;-80
2023/04/16 00:37:36;;;;;;;60.90;37.28;;;8.80;99.90;;;;;;5073351;28;20052;-81
2023/04/16 00:40:02;;;;;;;68.60;37.58;;;8.70;99.90;;;;;;5089828;28;20044;-80
2023/04/16 00:42:28;;;;;;;66.60;35.80;;;8.90;99.90;;;;;;5072520;28;20036;-80
2023/04/16 00:44:53;;;;;;;58.35;35.65;;;9.60;99.90;;;;;;5073756;28;20048;-80
2023/04/16 00:47:20;;;;;;;53.35;34.53;;;8.70;99.90;;;;;;5089374;28;20517;-80
2023/04/16 00:49:46;;;;;;;74.00;38.92;;;8.70;99.90;;;;;;5073937;28;20044;-80
2023/04/16 00:52:12;;;;;;;63.65;37.63;;;8.70;99.90;;;;;;5073829;28;20094;-80
2023/04/16 00:54:38;;;;;;;74.18;41.95;;;8.70;99.90;;;;;;5074170;28;20537;-80
2023/04/16 00:57:05;;;;;;;71.88;42.67;;;8.70;99.90;;;;;;5073351;28;20092;-79
2023/04/16 00:59:31;;;;;;;68.90;40.70;;;8.70;99.90;;;;;;5074142;28;20099;-80
2023/04/16 01:01:57;;;;;;;75.05;40.22;;;8.70;99.90;;;;;;5073077;28;20386;-80
2023/04/16 01:04:23;;;;;;;79.63;40.15;;;8.70;99.90;;;;;;5074119;28;20049;-80
2023/04/16 01:06:48;;;;;;;76.97;44.15;;;8.60;99.90;;;;;;5072988;28;20041;-80
2023/04/16 01:09:14;;;;;;;68.60;40.70;;;8.70;99.90;;;;;;5072253;28;20468;-81
2023/04/16 01:11:40;;;;;;;70.45;41.00;;;8.70;99.90;;;;;;5089417;28;20052;-77
2023/04/16 01:14:05;;;;;;;75.43;43.53;;;8.70;99.90;;;;;;5073281;28;20044;-79
2023/04/16 01:16:32;;;;;;;59.90;38.50;;;8.70;99.90;;;;;;5073356;28;20052;-80
2023/04/16 01:18:57;;;;;;;71.07;42.15;;;8.70;99.90;;;;;;5088857;28;20052;-80
2023/04/16 01:21:23;;;;;;;64.15;41.13;;;8.70;99.90;;;;;;5073255;28;20055;-81
2023/04/16 01:23:48;;;;;;;75.65;41.88;;;8.70;99.90;;;;;;5073505;28;20040;-81
2023/04/16 01:26:14;;;;;;;79.20;45.47;;;8.60;99.90;;;;;;5088667;28;20048;-81
2023/04/16 01:28:40;;;;;;;76.00;44.50;;;8.70;99.90;;;;;;5072425;28;20051;-81
2023/04/16 01:31:06;;;;;;;75.05;42.55;;;8.70;99.90;;;;;;5073494;28;20380;-79
2023/04/16 01:33:32;;;;;;;86.53;42.50;;;8.70;99.90;;;;;;5073413;28;20048;-80
2023/04/16 01:35:57;;;;;;;80.72;43.75;;;8.60;99.90;;;;;;5072995;28;20055;-80
2023/04/16 01:38:23;;;;;;;64.28;40.55;;;8.60;99.90;;;;;;5072812;28;20045;-81
2023/04/16 01:40:49;;;;;;;70.80;43.40;;;8.60;99.90;;;;;;5073154;28;20055;-80
2023/04/16 01:43:14;;;;;;;67.22;42.15;;;8.60;99.90;;;;;;5088722;28;20123;-80
2023/04/16 01:45:40;;;;;;;80.53;44.20;;;8.60;99.90;;;;;;5071550;28;20045;-80
2023/04/16 01:48:07;;;;;;;82.78;47.03;;;8.60;99.90;;;;;;5072660;28;20044;-79
2023/04/16 01:50:33;;;;;;;78.22;41.08;;;8.60;99.90;;;;;;5072679;28;20040;-80
2023/04/16 01:53:00;;;;;;;67.13;38.78;;;8.60;99.90;;;;;;5072389;28;20456;-81
2023/04/16 01:55:26;;;;;;;64.45;40.45;;;8.60;99.90;;;;;;5072841;28;20049;-80
2023/04/16 01:57:52;;;;;;;60.22;36.58;;;8.60;99.90;;;;;;5088282;28;20472;-81
2023/04/16 02:00:17;;;;;;;80.82;41.08;;;8.70;99.90;;;;;;5088397;28;20120;-80
2023/04/16 02:02:43;;;;;;;69.82;40.50;;;8.60;99.90;;;;;;5071321;28;20048;-81
2023/04/16 02:05:09;;;;;;;53.67;35.78;;;8.60;99.90;;;;;;5072568;28;20089;-81
2023/04/16 02:07:35;;;;;;;65.57;42.65;;;8.60;99.90;;;;;;5072509;28;20365;-80
2023/04/16 02:10:00;;;;;;;73.25;44.10;;;8.60;99.90;;;;;;5072910;28;20059;-80
2023/04/16 02:12:26;;;;;;;65.88;38.95;;;8.50;99.90;;;;;;5072195;28;20040;-80
2023/04/16 02:14:52;;;;;;;64.45;36.78;;;8.50;99.90;;;;;;5055183;28;20052;-79
2023/04/16 02:17:17;;;;;;;68.72;37.72;;;8.60;99.90;;;;;;5071466;28;20173;-81
2023/04/16 02:19:43;;;;;;;66.30;38.05;;;8.40;99.90;;;;;;5088871;28;20045;-81
2023/04/16 02:22:09;;;;;;;62.85;34.85;;;8.50;99.90;;;;;;5072436;28;20150;-81
2023/04/16 02:24:35;;;;;;;74.43;34.08;;;8.50;99.90;;;;;;5072833;28;20045;-80
2023/04/16 02:27:01;;;;;;;76.72;34.13;;;8.50;99.90;;;;;;5072169;28;20045;-79
2023/04/16 02:29:27;;;;;;;59.15;34.58;;;8.40;99.90;;;;;;5072406;28;20443;-80
2023/04/16 02:31:53;;;;;;;60.33;36.13;;;8.50;99.90;;;;;;5072207;28;20051;-80
2023/04/16 02:34:18;;;;;;;47.13;31.52;;;8.40;99.90;;;;;;5072856;28;20051;-80
2023/04/16 02:36:44;;;;;;;52.65;35.30;;;8.50;99.90;;;;;;5071269;28;20132;-81
2023/04/16 02:39:10;;;;;;;62.42;34.10;;;8.50;99.90;;;;;;5072711;28;20419;-81
2023/04/16 02:41:37;;;;;;;59.35;34.70;;;8.50;99.90;;;;;;5072554;28;20048;-80
2023/04/16 02:44:03;;;;;;;49.50;33.17;;;8.40;99.90;;;;;;5071824;28;20083;-81
2023/04/16 02:46:28;;;;;;;48.08;34.45;;;8.50;99.90;;;;;;5071043;28;20044;-80
2023/04/16 02:48:54;;;;;;;50.13;33.88;;;8.50;99.90;;;;;;5071820;28;20036;-81
2023/04/16 02:51:20;;;;;;;50.78;34.83;;;8.40;99.90;;;;;;5071801;28;20072;-80
2023/04/16 02:53:45;;;;;;;54.30;35.90;;;8.50;99.90;;;;;;5072138;28;20052;-78
2023/04/16 02:56:11;;;;;;;53.20;36.30;;;8.50;99.90;;;;;;5072764;28;20052;-80
2023/04/16 02:58:37;;;;;;;45.72;32.92;;;8.50;99.90;;;;;;5075766;28;20520;-79
2023/04/16 03:01:03;;;;;;;57.85;39.30;;;8.50;99.90;;;;;;5091731;28;20056;-80
2023/04/16 03:03:29;;;;;;;55.45;38.90;;;8.50;99.90;;;;;;5076121;28;20048;-80
2023/04/16 03:05:55;;;;;;;63.30;39.50;;;8.50;99.90;;;;;;5076068;28;20053;-80
2023/04/16 03:08:20;;;;;;;66.55;41.85;;;8.50;99.90;;;;;;5091437;28;20091;-80
2023/04/16 03:10:46;;;;;;;65.28;40.92;;;8.50;99.90;;;;;;5075137;28;20063;-80
2023/04/16 03:13:12;;;;;;;62.53;41.20;;;8.60;99.90;;;;;;5075788;28;20052;-80
2023/04/16 03:15:38;;;;;;;63.35;38.95;;;8.60;99.90;;;;;;5091669;28;20467;-80
2023/04/16 03:18:03;;;;;;;65.55;40.05;;;8.60;99.90;;;;;;5076175;28;20044;-81
2023/04/16 03:20:29;;;;;;;62.10;40.42;;;8.00;99.90;;;;;;5091385;28;20514;-79
2023/04/16 03:22:56;;;;;;;56.05;35.60;;;8.60;99.90;;;;;;5075480;28;20123;-80
2023/04/16 03:25:21;;;;;;;59.47;38.90;;;8.60;99.90;;;;;;5075810;28;20048;-80
2023/04/16 03:27:47;;;;;;;58.63;39.08;;;8.60;99.90;;;;;;5075310;28;20036;-79
2023/04/16 03:30:14;;;;;;;64.05;39.45;;;8.60;99.90;;;;;;5091713;28;20072;-80
2023/04/16 03:32:40;;;;;;;62.42;38.80;;;8.60;99.90;;;;;;5075460;28;20067;-79
2023/04/16 03:35:06;;;;;;;61.80;38.10;;;8.60;99.90;;;;;;5075443;28;20044;-80
2023/04/16 03:37:33;;;;;;;68.50;39.40;;;8.60;99.90;;;;;;5075418;28;20049;-80
2023/04/16 03:39:58;;;;;;;59.65;38.00;;;8.60;99.90;;;;;;5074360;28;20549;-80
2023/04/16 03:42:24;;;;;;;57.53;37.83;;;8.70;99.90;;;;;;5074375;28;20080;-80
2023/04/16 03:44:52;;;;;;;66.32;37.60;;;8.70;99.90;;;;;;5074066;28;20123;-80
2023/04/16 03:47:18;;;;;;;63.65;38.42;;;8.70;99.90;;;;;;5074353;28;20045;-80
2023/04/16 03:49:44;;;;;;;63.97;39.33;;;8.70;99.90;;;;;;5074745;28;20461;-80
2023/04/16 03:52:10;;;;;;;57.88;34.78;;;8.70;99.90;;;;;;5090766;28;20056;-80
2023/04/16 03:54:36;;;;;;;63.13;40.33;;;8.70;99.90;;;;;;5073977;28;20063;-80
2023/04/16 03:57:01;;;;;;;53.60;36.45;;;8.70;99.90;;;;;;5074968;28;20128;-80
2023/04/16 03:59:27;;;;;;;64.82;36.85;;;8.80;99.90;;;;;;5074121;28;20040;-78
2023/04/16 04:01:53;;;;;;;62.10;35.80;;;8.70;99.90;;;;;;5074842;28;20105;-80
2023/04/16 04:04:18;;;;;;;61.45;34.08;;;8.70;99.90;;;;;;5090967;28;20040;-81
2023/04/16 04:06:45;;;;;;;51.13;31.52;;;8.70;99.90;;;;;;5073900;28;20421;-81
2023/04/16 04:09:11;;;;;;;56.55;34.55;;;8.70;99.90;;;;;;5074920;28;20055;-81
2023/04/16 04:11:37;;;;;;;56.45;33.83;;;8.70;99.90;;;;;;5074296;28;20044;-79
2023/04/16 04:14:06;;;;;;;60.35;38.05;;;8.70;99.90;;;;;;5090190;28;20048;-80
2023/04/16 04:16:31;;;;;;;63.30;34.42;;;8.70;99.90;;;;;;5074436;28;20045;-80
2023/04/16 04:18:58;;;;;;;62.00;34.38;;;8.70;99.90;;;;;;5075191;28;20086;-79
2023/04/16 04:21:25;;;;;;;58.88;36.30;;;8.70;99.90;;;;;;5074496;28;20078;-81
2023/04/16 04:23:51;;;;;;;62.40;34.00;;;8.70;99.90;;;;;;5074379;28;20053;-80
2023/04/16 04:26:17;;;;;;;56.80;33.72;;;8.70;99.90;;;;;;5074287;28;20047;-79
2023/04/16 04:28:43;;;;;;;56.65;34.60;;;8.70;99.90;;;;;;5074280;28;20044;-79
2023/04/16 04:31:08;;;;;;;65.22;37.92;;;8.70;99.90;;;;;;5074249;28;20474;-81
2023/04/16 04:33:34;;;;;;;66.80;36.13;;;8.70;99.90;;;;;;5073283;28;20131;-80
2023/04/16 04:36:00;;;;;;;56.03;35.03;;;8.70;99.90;;;;;;5074470;28;20393;-81
2023/04/16 04:38:26;;;;;;;70.13;36.22;;;8.70;99.90;;;;;;5074285;28;20452;-79
2023/04/16 04:40:52;;;;;;;66.47;36.33;;;8.70;99.90;;;;;;5074477;28;20485;-80
2023/04/16 04:43:18;;;;;;;72.72;38.33;;;8.60;99.90;;;;;;5074004;28;20204;-79
2023/04/16 04:45:45;;;;;;;58.83;32.97;;;8.60;99.90;;;;;;5072926;28;20052;-79
2023/04/16 04:48:11;;;;;;;71.65;38.67;;;8.60;99.90;;;;;;5073116;28;20049;-78
2023/04/16 04:50:37;;;;;;;74.22;38.90;;;8.60;99.90;;;;;;5074180;28;20341;-79
2023/04/16 04:53:08;;;;;;;72.15;38.42;;;8.60;99.90;;;;;;5074008;28;20097;-80
2023/04/16 04:55:36;;;;;;;65.18;39.15;;;8.60;99.90;;;;;;5074101;28;20055;-77
2023/04/16 04:58:03;;;;;;;55.13;35.90;;;8.60;99.90;;;;;;5073459;28;20048;-79
2023/04/16 05:00:29;;;;;;;65.32;34.55;;;8.60;99.90;;;;;;5072432;28;20501;-77
2023/04/16 05:02:55;;;;;;;61.70;35.72;;;8.60;99.90;;;;;;5073526;28;20043;-79
2023/04/16 05:05:21;;;;;;;67.07;36.55;;;8.60;99.90;;;;;;5072109;28;20048;-77
2023/04/16 05:07:47;;;;;;;62.70;36.75;;;8.60;99.90;;;;;;5073256;28;20144;-78
2023/04/16 05:10:13;;;;;;;73.13;40.08;;;8.70;99.90;;;;;;5089806;28;20059;-78
2023/04/16 05:12:39;;;;;;;67.10;36.00;;;8.60;99.90;;;;;;5073081;28;20036;-80
2023/04/16 05:15:05;;;;;;;78.05;37.50;;;8.60;99.90;;;;;;5072405;28;20040;-80
2023/04/16 05:17:30;;;;;;;64.50;33.20;;;8.70;99.90;;;;;;5073542;28;20048;-79
2023/04/16 05:19:56;;;;;;;63.63;32.95;;;8.70;99.90;;;;;;5072591;28;20154;-79
2023/04/16 05:22:22;;;;;;;55.33;31.52;;;8.60;99.90;;;;;;5073054;28;20067;-79
2023/04/16 05:24:47;;;;;;;62.75;34.67;;;8.70;99.90;;;;;;5072747;28;20051;-78
2023/04/16 05:27:13;;;;;;;56.60;32.40;;;8.70;99.90;;;;;;5073304;28;20090;-79
2023/04/16 05:29:39;;;;;;;64.90;35.40;;;8.70;99.90;;;;;;5073010;28;20572;-77
2023/04/16 05:32:05;;;;;;;57.03;33.33;;;8.70;99.90;;;;;;5072456;28;20045;-78
2023/04/16 05:34:31;;;;;;;52.70;33.08;;;8.70;99.90;;;;;;5072775;28;20048;-77
2023/04/16 05:36:56;;;;;;;63.90;34.60;;;8.70;99.90;;;;;;5072362;28;20493;-80
2023/04/16 05:39:22;;;;;;;50.17;30.92;;;8.70;99.90;;;;;;5072811;28;20052;-80
2023/04/16 05:41:47;;;;;;;53.70;30.45;;;8.70;99.90;;;;;;5072548;28;20079;-78
2023/04/16 05:44:14;;;;;;;60.08;32.78;;;8.70;99.90;;;;;;5071666;28;20049;-77
2023/04/16 05:46:39;;;;;;;52.08;31.38;;;8.80;99.90;;;;;;5072628;28;20044;-79
2023/04/16 05:49:05;;;;;;;52.90;31.20;;;8.80;99.90;;;;;;5073040;28;20182;-79
2023/04/16 05:51:32;;;;;;;51.95;32.08;;;8.80;99.90;;;;;;5072232;28;20481;-78
2023/04/16 05:53:57;;;;;;;47.50;30.38;;;8.90;99.90;;;;;;5071286;28;20048;-79
2023/04/16 05:56:24;;;;;;;54.38;29.17;;;8.90;99.90;;;;;;5072394;28;20091;-78
2023/04/16 05:58:50;;;;;;;51.80;30.27;;;8.80;99.90;;;;;;5072849;28;20044;-77
2023/04/16 06:01:15;;;;;;;47.05;30.08;;;9.00;99.90;;;;;;5088185;28;20040;-79
2023/04/16 06:03:41;;;;;;;47.72;28.98;;;9.00;99.90;;;;;;5088160;28;20127;-78
2023/04/16 06:06:08;;;;;;;44.90;29.00;;;9.00;99.90;;;;;;5072234;28;20040;-79
2023/04/16 06:08:34;;;;;;;43.53;26.73;;;9.00;99.90;;;;;;5072845;28;20363;-78
2023/04/16 06:10:59;;;;;;;50.80;28.60;;;9.10;99.90;;;;;;5072269;28;20058;-79
2023/04/16 06:13:25;;;;;;;54.10;27.88;;;9.10;99.90;;;;;;5072486;28;20040;-78
2023/04/16 06:15:51;;;;;;;42.30;28.48;;;9.20;99.90;;;;;;5072580;28;20442;-79
2023/04/16 06:18:16;;;;;;;46.88;28.48;;;9.20;99.90;;;;;;5072229;28;20043;-79
2023/04/16 06:20:42;;;;;;;49.17;28.25;;;9.20;99.90;;;;;;5072106;28;20056;-79
2023/04/16 06:23:08;;;;;;;44.83;27.70;;;9.20;99.90;;;;;;5072257;28;20129;-78
2023/04/16 06:25:33;;;;;;;45.63;28.65;;;9.10;99.90;;;;;;5072223;28;20052;-79
2023/04/16 06:27:59;;;;;;;42.63;26.80;;;9.20;99.90;;;;;;5072026;28;20044;-78
2023/04/16 06:30:25;;;;;;;47.83;27.77;;;9.20;99.90;;;;;;5072605;28;20052;-77
2023/04/16 06:32:51;;;;;;;45.67;28.83;;;9.20;99.90;;;;;;5074752;28;20454;-79
2023/04/16 06:35:18;;;;;;;44.78;27.38;;;9.20;99.90;;;;;;5076181;28;20094;-79
2023/04/16 06:37:45;;;;;;;46.00;26.90;;;9.30;99.90;;;;;;5076420;28;20066;-79
2023/04/16 06:40:11;;;;;;;49.15;26.88;;;9.30;99.90;;;;;;5075956;28;20052;-78
2023/04/16 06:42:36;;;;;;;45.35;28.92;;;9.40;99.90;;;;;;5076489;28;20123;-76
2023/04/16 06:45:02;;;;;;;48.58;27.05;;;9.40;99.90;;;;;;5076023;28;20438;-80
2023/04/16 06:47:28;;;;;;;40.45;25.70;;;9.50;99.90;;;;;;5076697;28;20044;-79
2023/04/16 06:49:54;;;;;;;40.20;24.20;;;9.50;99.90;;;;;;5076396;28;20114;-79
2023/04/16 06:52:20;;;;;;;45.33;26.73;;;9.60;99.90;;;;;;5076231;28;20063;-79
2023/04/16 06:54:46;;;;;;;40.72;24.10;;;9.60;99.90;;;;;;5076162;28;20051;-79
2023/04/16 06:57:12;;;;;;;39.85;24.92;;;9.60;99.90;;;;;;5076116;28;20048;-79
2023/04/16 06:59:37;;;;;;;39.08;22.92;;;9.60;99.90;;;;;;5076399;28;20522;-80
2023/04/16 07:02:03;;;;;;;37.53;23.60;;;9.60;99.90;;;;;;5075846;28;20052;-79
2023/04/16 07:04:29;;;;;;;37.38;24.40;;;9.50;99.90;;;;;;5075861;28;20056;-79
2023/04/16 07:06:55;;;;;;;40.75;23.48;;;9.50;99.90;;;;;;5075874;28;20040;-78
2023/04/16 07:09:20;;;;;;;40.78;23.83;;;9.60;99.90;;;;;;5074900;28;20049;-78
2023/04/16 07:11:46;;;;;;;38.30;24.30;;;9.60;99.90;;;;;;5091680;28;20089;-81
2023/04/16 07:14:12;;;;;;;38.20;24.17;;;9.60;99.90;;;;;;5058047;28;20048;-85
2023/04/16 07:16:37;;;;;;;37.33;23.75;;;9.70;99.90;;;;;;5074739;28;20049;-84
2023/04/16 07:19:03;;;;;;;45.67;22.52;;;9.70;99.90;;;;;;5091384;28;20135;-86
2023/04/16 07:21:30;;;;;;;38.47;22.27;;;9.70;99.90;;;;;;5092235;28;20044;-86
2023/04/16 07:23:56;;;;;;;35.42;23.83;;;9.80;99.90;;;;;;5091089;28;20087;-82
2023/04/16 07:26:21;;;;;;;40.03;23.20;;;9.90;99.90;;;;;;5091896;28;20060;-83
2023/04/16 07:28:47;;;;;;;37.92;22.40;;;9.90;99.90;;;;;;5091069;28;20492;-83
2023/04/16 07:31:12;;;;;;;35.83;21.55;;;9.90;99.90;;;;;;5075436;28;20093;-84
2023/04/16 07:33:38;;;;;;;33.92;23.27;;;10.00;99.90;;;;;;5090998;28;20055;-85
2023/04/16 07:36:04;;;;;;;36.35;20.83;;;10.10;99.90;;;;;;5075059;28;20084;-85
2023/04/16 07:38:30;;;;;;;35.47;20.52;;;10.20;99.90;;;;;;5074126;28;20074;-83
2023/04/16 07:40:55;;;;;;;36.88;22.10;;;10.30;99.90;;;;;;5075130;28;20064;-81
2023/04/16 07:43:21;;;;;;;35.13;20.92;;;10.40;99.90;;;;;;5074729;28;20048;-84
2023/04/16 07:45:47;;;;;;;33.90;20.83;;;10.40;99.90;;;;;;5075176;28;20076;-80
2023/04/16 07:48:12;;;;;;;42.45;21.55;;;10.40;99.90;;;;;;5075008;28;20040;-83
2023/04/16 07:50:38;;;;;;;34.30;20.30;;;10.50;99.90;;;;;;5075001;28;20056;-82
2023/04/16 07:53:06;;;;;;;32.42;22.13;;;10.50;99.90;;;;;;5074302;28;20056;-83
2023/04/16 07:55:32;;;;;;;39.50;21.42;;;10.50;99.90;;;;;;5090512;28;20102;-80
2023/04/16 07:57:57;;;;;;;37.20;19.85;;;10.50;99.90;;;;;;5091114;28;20095;-81
2023/04/16 08:00:23;;;;;;;38.75;19.70;;;10.60;99.90;;;;;;5074731;28;20040;-83
2023/04/16 08:02:49;;;;;;;38.38;20.08;;;10.70;99.90;;;;;;5075127;28;20098;-84
2023/04/16 08:05:15;;;;;;;31.98;19.08;;;10.70;99.90;;;;;;5074857;28;20044;-81
2023/04/16 08:07:40;;;;;;;28.85;17.73;;;10.70;99.90;;;;;;5107672;28;20485;-82
2023/04/16 08:10:07;;;;;;;38.25;21.88;;;10.90;99.90;;;;;;5074712;28;20048;-80
2023/04/16 08:12:32;;;;;;;47.50;20.27;;;10.90;99.90;;;;;;5073490;28;20082;-82
2023/04/16 08:14:58;;;;;;;36.22;19.48;;;11.00;99.90;;;;;;5074792;28;20127;-79
2023/04/16 08:17:24;;;;;;;36.72;19.83;;;11.20;99.90;;;;;;5074463;28;20052;-84
2023/04/16 08:19:49;;;;;;;28.00;18.63;;;11.20;99.90;;;;;;5074465;28;20040;-84
2023/04/16 08:22:15;;;;;;;30.02;18.05;;;11.20;99.90;;;;;;5074422;28;20127;-83
2023/04/16 08:24:41;;;;;;;32.53;18.00;;;11.40;99.90;;;;;;5074376;28;20055;-83
2023/04/16 08:27:07;;;;;;;26.42;16.95;;;11.60;99.90;;;;;;5089853;28;20044;-82
2023/04/16 08:29:33;;;;;;;32.88;16.85;;;11.80;99.90;;;;;;5074581;28;20048;-84
2023/04/16 08:31:59;;;;;;;29.00;16.50;;;12.10;99.90;;;;;;5073445;28;20523;-81
2023/04/16 08:34:25;;;;;;;26.75;15.50;;;12.30;99.90;;;;;;5074182;28;20076;-82
2023/04/16 08:36:50;;;;;;;27.38;15.52;;;12.40;99.90;;;;;;5074519;28;20112;-82
2023/04/16 08:39:16;;;;;;;35.45;16.52;;;12.70;99.90;;;;;;5074050;28;20179;-81
2023/04/16 08:41:44;;;;;;;31.05;16.48;;;12.90;99.90;;;;;;5074043;28;20057;-81
2023/04/16 08:44:24;;;;;;;24.73;16.60;;;13.00;99.90;;;;;;5073725;28;20049;-82
2023/04/16 08:46:53;;;;;;;24.50;15.20;;;13.20;99.90;;;;;;5074023;28;20044;-82
2023/04/16 08:49:19;;;;;;;27.95;16.27;;;13.00;99.90;;;;;;5089666;28;20137;-81
2023/04/16 08:51:55;;;;;;;31.63;16.67;;;13.00;99.90;;;;;;5073824;28;20044;-81
2023/04/16 08:54:38;;;;;;;26.08;13.82;;;13.20;99.90;;;;;;5071884;28;20458;-81
2023/04/16 08:57:05;;;;;;;23.08;13.93;;;13.20;99.90;;;;;;5055721;28;20106;-79
2023/04/16 08:59:32;;;;;;;24.52;17.23;;;13.20;99.90;;;;;;5072349;28;20119;-80
2023/04/16 09:01:59;;;;;;;23.40;14.30;;;13.30;99.90;;;;;;5089192;28;20080;-79
2023/04/16 09:04:28;;;;;;;19.38;13.27;;;13.50;99.90;;;;;;5072569;28;20056;-73
2023/04/16 09:06:57;;;;;;;29.98;14.65;;;13.50;99.90;;;;;;5073527;28;20044;-82
2023/04/16 09:09:25;;;;;;;24.83;14.57;;;13.40;99.90;;;;;;5073397;28;20051;-81
2023/04/16 09:11:52;;;;;;;25.80;13.50;;;13.40;99.90;;;;;;5073859;28;20051;-80
2023/04/16 09:14:18;;;;;;;23.35;13.13;;;13.70;99.90;;;;;;5073786;28;20102;-80
2023/04/16 09:16:51;;;;;;;23.17;15.65;;;13.70;99.90;;;;;;5073431;28;20443;-82
2023/04/16 09:19:17;;;;;;;;;;;13.40;99.90;;;;;;5072514;28;20059;-81
2023/04/16 09:21:46;;;;;;;24.33;13.82;;;13.30;99.90;;;;;;5072049;28;19920;-77
2023/04/16 09:24:13;;;;;;;26.73;14.60;;;13.50;99.90;;;;;;5073334;28;20140;-82
2023/04/16 09:26:42;;;;;;;20.45;14.18;;;13.60;99.90;;;;;;5071992;28;20403;-78
2023/04/16 09:29:08;;;;;;;27.48;13.55;;;13.50;99.90;;;;;;5088508;28;20114;-81
2023/04/16 09:31:34;;;;;;;23.50;13.70;;;13.50;99.90;;;;;;5073175;28;20044;-73
2023/04/16 09:34:07;;;;;;;19.10;12.38;;;13.40;99.90;;;;;;5071753;28;20541;-82
2023/04/16 09:36:34;;;;;;;22.52;13.35;;;13.60;99.90;;;;;;5072889;28;20048;-79
2023/04/16 09:39:00;;;;;;;22.20;12.95;;;13.80;99.90;;;;;;5073367;28;20080;-80
2023/04/16 09:41:38;;;;;;;21.15;13.00;;;14.10;99.90;;;;;;5073112;28;20044;-80
2023/04/16 09:44:04;;;;;;;18.38;11.93;;;14.50;99.90;;;;;;5072830;28;20431;-82
2023/04/16 09:46:34;;;;;;;23.50;13.25;;;14.50;99.90;;;;;;5072201;28;20048;-78
2023/04/16 09:49:14;;;;;;;19.63;12.40;;;14.40;99.90;;;;;;5071672;28;20044;-78
2023/04/16 09:51:41;;;;;;;18.67;11.52;;;14.60;99.90;;;;;;5075547;28;20056;-81
2023/04/16 09:54:07;;;;;;;19.65;13.05;;;14.80;99.90;;;;;;5073821;28;20060;-81
2023/04/16 09:56:43;;;;;;;17.83;11.60;;;14.50;99.90;;;;;;5073407;28;20048;-81
2023/04/16 09:59:22;;;;;;;18.20;12.77;;;14.50;99.90;;;;;;5074178;28;20043;-81
2023/04/16 10:01:48;;;;;;;16.30;11.30;;;14.80;99.90;;;;;;5073339;28;20106;-80
2023/04/16 10:04:15;;;;;;;16.50;11.38;;;14.90;99.90;;;;;;5073324;28;20040;-80
2023/04/16 10:06:41;;;;;;;23.10;12.60;;;15.00;99.90;;;;;;5072998;28;20044;-81
2023/04/16 10:09:08;;;;;;;18.15;12.00;;;15.00;99.90;;;;;;5071509;28;20048;-80
2023/04/16 10:11:34;;;;;;;16.38;12.60;;;15.10;99.90;;;;;;5072608;28;20045;-82
2023/04/16 10:14:00;;;;;;;16.50;12.77;;;15.00;99.90;;;;;;5071849;28;20102;-80
2023/04/16 10:16:26;;;;;;;17.30;11.82;;;15.30;99.90;;;;;;5072604;28;20044;-80
2023/04/16 10:18:53;;;;;;;15.60;11.93;;;15.50;99.90;;;;;;5072508;28;20048;-80
2023/04/16 10:21:20;;;;;;;17.02;11.00;;;15.70;99.90;;;;;;5072460;28;20046;-82
2023/04/16 10:23:46;;;;;;;16.98;12.27;;;15.80;99.90;;;;;;5072843;28;20098;-81
2023/04/16 10:26:12;;;;;;;16.08;11.48;;;15.80;99.90;;;;;;5055091;28;20056;-81
2023/04/16 10:28:39;;;;;;;19.65;12.95;;;15.90;99.90;;;;;;5072703;28;20041;-80
2023/04/16 10:31:07;;;;;;;16.65;11.35;;;15.90;99.90;;;;;;5071654;28;20052;-79
2023/04/16 10:33:41;;;;;;;17.85;11.35;;;15.80;99.90;;;;;;5072325;28;20094;-81
2023/04/16 10:36:12;;;;;;;21.85;13.10;;;16.30;99.90;;;;;;5071234;28;20049;-80
2023/04/16 10:38:39;;;;;;;18.88;12.90;;;16.00;99.90;;;;;;5071084;28;20477;-79
2023/04/16 10:41:06;;;;;;;16.23;10.98;;;16.40;99.90;;;;;;5070965;28;20105;-78
2023/04/16 10:43:48;;;;;;;18.40;12.60;;;16.40;99.90;;;;;;5071863;28;20060;-79
2023/04/16 10:46:31;;;;;;;18.00;12.52;;;16.30;99.90;;;;;;5072910;28;20040;-81
2023/04/16 10:49:02;;;;;;;22.70;11.85;;;16.40;99.90;;;;;;5072817;28;20072;-80
2023/04/16 10:51:32;;;;;;;16.88;12.65;;;16.30;99.90;;;;;;5072219;28;20048;-80
2023/04/16 10:54:04;;;;;;;21.75;13.02;;;16.30;99.90;;;;;;5072690;28;20131;-79
2023/04/16 10:56:33;;;;;;;22.00;12.90;;;15.90;99.90;;;;;;5072159;28;20055;-82
2023/04/16 10:58:59;;;;;;;16.85;11.85;;;15.50;99.90;;;;;;5071710;28;20080;-81
2023/04/16 11:01:36;;;;;;;19.98;12.38;;;15.60;99.90;;;;;;5071674;28;20132;-81
2023/04/16 11:04:20;;;;;;;15.55;12.65;;;15.50;99.90;;;;;;5072077;28;20163;-78
2023/04/16 11:07:10;;;;;;;23.55;12.80;;;15.60;99.90;;;;;;5071930;28;20074;-78
2023/04/16 11:09:58;;;;;;;17.45;12.23;;;15.90;99.90;;;;;;5071974;28;20096;-79
2023/04/16 11:12:38;;;;;;;16.23;12.15;;;15.80;99.90;;;;;;5071692;28;20102;-83
2023/04/16 11:15:08;;;;;;;18.90;12.10;;;15.90;99.90;;;;;;5071133;28;20147;-80
2023/04/16 11:17:38;;;;;;;16.08;12.00;;;16.20;99.90;;;;;;5071517;28;20571;-82
2023/04/16 11:20:09;;;;;;;19.02;12.57;;;16.30;99.90;;;;;;5075468;28;20091;-81
2023/04/16 11:22:35;;;;;;;17.50;11.20;;;16.50;99.90;;;;;;5075459;28;20045;-76
2023/04/16 11:25:02;;;;;;;14.70;11.15;;;16.30;99.90;;;;;;5074326;28;20423;-78
2023/04/16 11:27:30;;;;;;;18.95;12.07;;;16.30;99.90;;;;;;5075220;28;20043;-78
2023/04/16 11:30:01;;;;;;;18.40;11.95;;;16.30;99.90;;;;;;5091156;28;20391;-77
2023/04/16 11:32:29;;;;;;;14.98;10.98;;;15.90;99.90;;;;;;5075307;28;20131;-79
2023/04/16 11:34:55;;;;;;;16.60;11.32;;;15.60;99.90;;;;;;5074886;28;20047;-77
2023/04/16 11:37:34;;;;;;;16.23;12.05;;;15.60;99.90;;;;;;5074171;28;20052;-79
2023/04/16 11:40:02;;;;;;;15.18;13.05;;;15.40;99.90;;;;;;5075582;28;20049;-80
2023/04/16 11:42:28;;;;;;;19.95;12.50;;;15.50;99.90;;;;;;5075376;28;20048;-81
2023/04/16 11:44:55;;;;;;;21.90;13.93;;;15.60;99.90;;;;;;5075182;28;20044;-81
2023/04/16 11:47:25;;;;;;;21.20;12.82;;;15.10;99.90;;;;;;5074896;28;20041;-81
2023/04/16 11:49:51;;;;;;;16.83;10.95;;;15.10;99.90;;;;;;5074103;28;20071;-82
2023/04/16 11:52:31;;;;;;;21.10;12.27;;;15.10;99.90;;;;;;5075076;28;20505;-81
2023/04/16 11:54:57;;;;;;;16.73;11.80;;;15.30;99.90;;;;;;5073559;28;20091;-80
2023/04/16 11:57:30;;;;;;;22.17;11.98;;;15.20;99.90;;;;;;5074613;28;20044;-78
2023/04/16 11:59:58;;;;;;;16.05;12.10;;;15.10;99.90;;;;;;5074770;28;20498;-80
2023/04/16 12:02:43;;;;;;;18.45;11.90;;;15.10;99.90;;;;;;5074790;28;20053;-80
2023/04/16 12:05:27;;;;;;;18.05;12.95;;;15.20;99.90;;;;;;5074067;28;20480;-81
2023/04/16 12:07:54;;;;;;;18.67;12.55;;;14.90;99.90;;;;;;5073079;28;20051;-79
2023/04/16 12:10:19;;;;;;;20.48;12.65;;;15.10;99.90;;;;;;5074489;28;20052;-81
2023/04/16 12:12:45;;;;;;;25.83;14.07;;;15.10;99.90;;;;;;5074208;28;20120;-80
2023/04/16 12:15:11;;;;;;;19.65;13.38;;;15.00;99.90;;;;;;5074181;28;20132;-80
2023/04/16 12:17:37;;;;;;;18.80;15.20;;;15.10;99.90;;;;;;5074368;28;20047;-79
2023/04/16 12:20:11;;;;;;;22.48;14.18;;;14.90;99.90;;;;;;5074222;28;20044;-77
2023/04/16 12:22:44;;;;;;;21.80;15.02;;;15.10;99.90;;;;;;5074257;28;20097;-79
2023/04/16 12:25:15;;;;;;;16.33;12.95;;;15.00;99.90;;;;;;5073243;28;20062;-79
2023/04/16 12:27:45;;;;;;;22.60;14.85;;;15.10;99.90;;;;;;5073836;28;20482;-78
2023/04/16 12:30:12;;;;;;;18.83;12.85;;;15.00;99.90;;;;;;5074012;28;20071;-77
2023/04/16 12:32:40;;;;;;;18.27;13.85;;;15.20;99.90;;;;;;5073971;28;20049;-77